createdAt,value
2022-08-20T00:00:25.690Z,25.50
2022-08-20T00:02:57.611Z,27.17
2022-08-20T00:05:29.712Z,28.97
2022-08-20T00:07:56.676Z,29.83
2022-08-20T00:10:23.991Z,30.33
2022-08-20T00:12:50.775Z,28.57
2022-08-20T00:15:21.695Z,30.10
2022-08-20T00:17:52.183Z,27.83
2022-08-20T00:20:20.595Z,28.93
2022-08-20T00:22:47.671Z,27.90
2022-08-20T00:25:14.449Z,27.23
2022-08-20T00:27:41.095Z,28.83
2022-08-20T00:30:09.310Z,27.77
2022-08-20T00:32:50.767Z,27.20
2022-08-20T00:35:18.710Z,28.00
2022-08-20T00:37:45.404Z,28.57
2022-08-20T00:40:22.114Z,28.17
2022-08-20T00:42:52.267Z,27.50
2022-08-20T00:45:19.797Z,29.20
2022-08-20T00:47:55.816Z,28.97
2022-08-20T00:50:29.062Z,28.23
2022-08-20T00:52:55.788Z,28.83
2022-08-20T00:55:24.954Z,25.97
2022-08-20T00:58:00.026Z,26.80
2022-08-20T01:00:31.779Z,28.10
2022-08-20T01:03:00.508Z,26.50
2022-08-20T01:05:29.923Z,26.83
2022-08-20T01:07:57.087Z,25.10
2022-08-20T01:10:28.908Z,27.67
2022-08-20T01:12:59.507Z,26.20
2022-08-20T01:15:31.285Z,28.47
2022-08-20T01:17:58.651Z,26.97
2022-08-20T01:20:26.789Z,23.50
2022-08-20T01:23:34.262Z,25.53
2022-08-20T01:26:35.637Z,25.13
2022-08-20T01:29:11.045Z,21.60
2022-08-20T01:31:38.642Z,24.60
2022-08-20T01:34:52.584Z,24.23
2022-08-20T01:37:19.702Z,24.10
2022-08-20T01:39:46.469Z,21.77
2022-08-20T01:42:23.861Z,23.60
2022-08-20T01:44:50.614Z,24.00
2022-08-20T01:47:21.216Z,23.03
2022-08-20T01:49:53.767Z,20.17
2022-08-20T01:52:51.608Z,21.40
2022-08-20T01:55:18.275Z,22.47
2022-08-20T01:57:44.964Z,22.83
2022-08-20T02:00:19.058Z,23.07
2022-08-20T02:02:47.014Z,22.80
2022-08-20T02:05:13.658Z,22.57
2022-08-20T02:07:40.462Z,20.47
2022-08-20T02:10:09.214Z,21.57
2022-08-20T02:12:36.035Z,21.23
2022-08-20T02:15:02.855Z,24.27
2022-08-20T02:17:30.299Z,22.07
2022-08-20T02:20:10.194Z,23.80
2022-08-20T02:22:49.907Z,22.63
2022-08-20T02:25:17.573Z,21.43
2022-08-20T02:27:45.946Z,21.30
2022-08-20T02:30:28.216Z,19.67
2022-08-20T02:32:59.145Z,20.47
2022-08-20T02:35:26.508Z,21.23
2022-08-20T02:37:53.329Z,21.30
2022-08-20T02:40:30.720Z,21.53
2022-08-20T02:42:58.788Z,22.07
2022-08-20T02:45:25.479Z,22.17
2022-08-20T02:47:55.617Z,19.43
2022-08-20T02:50:22.887Z,21.80
2022-08-20T02:52:52.152Z,21.80
2022-08-20T02:55:25.985Z,21.93
2022-08-20T02:57:59.062Z,21.37
2022-08-20T03:00:26.654Z,20.50
2022-08-20T03:02:53.403Z,22.70
2022-08-20T03:05:20.094Z,21.70
2022-08-20T03:07:48.876Z,24.00
2022-08-20T03:10:15.624Z,22.63
2022-08-20T03:12:42.908Z,21.07
2022-08-20T03:15:17.576Z,22.37
2022-08-20T03:17:45.015Z,20.17
2022-08-20T03:20:12.146Z,20.67
2022-08-20T03:22:39.005Z,20.50
2022-08-20T03:25:06.569Z,21.60
2022-08-20T03:27:36.429Z,21.07
2022-08-20T03:30:05.342Z,19.17
2022-08-20T03:32:32.039Z,20.63
2022-08-20T03:34:58.689Z,19.60
2022-08-20T03:37:25.789Z,20.63
2022-08-20T03:39:52.582Z,19.50
2022-08-20T03:42:19.682Z,21.37
2022-08-20T03:44:46.366Z,19.77
2022-08-20T03:47:13.007Z,19.20
2022-08-20T03:49:39.672Z,18.00
2022-08-20T03:52:06.413Z,18.77
2022-08-20T03:54:33.085Z,19.77
2022-08-20T03:57:00.779Z,20.63
2022-08-20T03:59:27.463Z,19.60
2022-08-20T04:01:54.651Z,19.87
2022-08-20T04:04:22.158Z,17.23
2022-08-20T04:06:49.259Z,18.80
2022-08-20T04:09:15.955Z,19.60
2022-08-20T04:11:42.602Z,17.50
2022-08-20T04:14:11.040Z,19.77
2022-08-20T04:16:39.406Z,17.47
2022-08-20T04:19:06.237Z,18.47
2022-08-20T04:21:33.682Z,18.93
2022-08-20T04:24:01.122Z,17.23
2022-08-20T04:26:27.858Z,16.93
2022-08-20T04:28:55.513Z,18.00
2022-08-20T04:31:25.405Z,16.40
2022-08-20T04:33:52.391Z,17.70
2022-08-20T04:36:19.528Z,17.03
2022-08-20T04:38:50.449Z,17.90
2022-08-20T04:41:22.979Z,17.87
2022-08-20T04:43:51.319Z,18.97
2022-08-20T04:46:19.409Z,17.93
2022-08-20T04:48:48.713Z,18.27
2022-08-20T04:51:15.895Z,15.70
2022-08-20T04:53:43.091Z,15.97
2022-08-20T04:56:10.225Z,16.43
2022-08-20T04:58:38.008Z,16.20
2022-08-20T05:01:09.535Z,15.70
2022-08-20T05:03:37.647Z,14.83
2022-08-20T05:06:06.135Z,15.40
2022-08-20T05:08:33.300Z,13.20
2022-08-20T05:11:32.793Z,14.40
2022-08-20T05:13:47.087Z,13.53
2022-08-20T05:16:15.160Z,14.10
2022-08-20T05:18:43.250Z,13.57
2022-08-20T05:21:09.971Z,13.93
2022-08-20T05:23:37.554Z,11.90
2022-08-20T05:26:09.114Z,13.03
2022-08-20T05:28:48.903Z,12.40
2022-08-20T05:31:23.164Z,12.87
2022-08-20T05:33:57.969Z,12.77
2022-08-20T05:36:24.641Z,11.30
2022-08-20T05:38:52.399Z,11.37
2022-08-20T05:41:29.022Z,12.03
2022-08-20T05:43:56.686Z,11.90
2022-08-20T05:46:23.799Z,11.00
2022-08-20T05:48:50.867Z,11.43
2022-08-20T05:51:18.010Z,11.60
2022-08-20T05:53:44.657Z,12.47
2022-08-20T05:56:11.441Z,11.10
2022-08-20T05:58:41.011Z,11.03
2022-08-20T06:01:07.734Z,10.77
2022-08-20T06:03:52.968Z,11.50
2022-08-20T06:06:44.607Z,9.60
2022-08-20T06:09:07.400Z,10.30
2022-08-20T06:11:37.192Z,10.90
2022-08-20T06:14:04.943Z,11.23
2022-08-20T06:16:32.099Z,11.30
2022-08-20T06:18:58.823Z,8.97
2022-08-20T06:21:26.217Z,9.67
2022-08-20T06:23:57.245Z,10.87
2022-08-20T06:26:30.656Z,9.50
2022-08-20T06:29:01.742Z,9.50
2022-08-20T06:31:28.526Z,11.30
2022-08-20T06:33:55.188Z,10.40
2022-08-20T06:36:21.887Z,10.40
2022-08-20T06:38:48.797Z,10.60
2022-08-20T06:41:16.536Z,10.80
2022-08-20T06:43:43.757Z,9.53
2022-08-20T06:46:10.805Z,9.97
2022-08-20T06:48:38.150Z,9.83
2022-08-20T06:51:06.707Z,10.20
2022-08-20T06:53:33.440Z,10.27
2022-08-20T06:56:00.559Z,9.13
2022-08-20T06:58:37.001Z,8.87
2022-08-20T07:01:09.305Z,9.70
2022-08-20T07:03:38.326Z,9.07
2022-08-20T07:06:05.290Z,9.03
2022-08-20T07:08:31.956Z,9.40
2022-08-20T07:10:59.623Z,8.80
2022-08-20T07:13:26.299Z,8.03
2022-08-20T07:15:54.187Z,8.40
2022-08-20T07:18:27.960Z,8.10
2022-08-20T07:20:56.990Z,7.87
2022-08-20T07:23:27.103Z,7.10
2022-08-20T07:25:55.568Z,8.67
2022-08-20T07:28:23.566Z,7.10
2022-08-20T07:31:13.211Z,7.97
2022-08-20T07:33:41.247Z,6.50
2022-08-20T07:36:08.423Z,6.70
2022-08-20T07:38:35.206Z,7.40
2022-08-20T07:41:07.525Z,6.63
2022-08-20T07:43:34.330Z,6.37
2022-08-20T07:46:02.963Z,6.17
2022-08-20T07:48:31.992Z,6.60
2022-08-20T07:51:00.230Z,6.90
2022-08-20T07:53:27.042Z,7.40
2022-08-20T07:55:58.732Z,7.00
2022-08-20T07:58:27.663Z,7.07
2022-08-20T08:01:00.431Z,6.50
2022-08-20T08:03:39.537Z,6.57
2022-08-20T08:06:17.239Z,6.67
2022-08-20T08:08:57.981Z,5.63
2022-08-20T08:11:25.082Z,5.40
2022-08-20T08:13:51.950Z,5.50
2022-08-20T08:16:20.050Z,5.73
2022-08-20T08:18:49.839Z,5.40
2022-08-20T08:21:17.752Z,5.70
2022-08-20T08:23:44.881Z,5.70
2022-08-20T08:26:15.893Z,5.90
2022-08-20T08:28:44.578Z,6.73
2022-08-20T08:31:11.546Z,6.43
2022-08-20T08:33:39.972Z,6.00
2022-08-20T08:36:09.731Z,6.20
2022-08-20T08:38:38.092Z,6.57
2022-08-20T08:41:31.780Z,5.90
2022-08-20T08:44:12.904Z,6.47
2022-08-20T08:46:43.939Z,5.33
2022-08-20T08:49:13.119Z,6.80
2022-08-20T08:51:42.272Z,7.03
2022-08-20T08:54:09.220Z,6.60
2022-08-20T08:56:36.102Z,6.60
2022-08-20T08:59:05.312Z,6.07
2022-08-20T09:01:53.997Z,7.17
2022-08-20T09:04:22.006Z,6.70
2022-08-20T09:06:54.517Z,7.20
2022-08-20T09:09:27.054Z,7.33
2022-08-20T09:11:55.818Z,6.20
2022-08-20T09:14:24.876Z,6.70
2022-08-20T09:16:52.936Z,7.03
2022-08-20T09:19:20.684Z,6.70
2022-08-20T09:21:47.368Z,6.20
2022-08-20T09:24:14.079Z,6.93
2022-08-20T09:26:40.827Z,7.40
2022-08-20T09:29:07.534Z,7.57
2022-08-20T09:31:34.683Z,8.73
2022-08-20T09:34:04.005Z,7.73
2022-08-20T09:36:32.505Z,8.77
2022-08-20T09:38:59.983Z,8.30
2022-08-20T09:41:26.667Z,7.43
2022-08-20T09:43:53.434Z,7.53
2022-08-20T09:46:20.114Z,6.87
2022-08-20T09:48:54.355Z,7.40
2022-08-20T09:51:21.111Z,7.47
2022-08-20T09:53:48.941Z,6.73
2022-08-20T09:56:15.762Z,7.40
2022-08-20T09:58:53.522Z,7.90
2022-08-20T10:01:20.936Z,7.57
2022-08-20T10:03:48.968Z,7.93
2022-08-20T10:06:17.729Z,8.40
2022-08-20T10:08:44.470Z,7.10
2022-08-20T10:11:11.599Z,7.60
2022-08-20T10:13:38.266Z,7.90
2022-08-20T10:16:05.196Z,7.43
2022-08-20T10:18:31.934Z,7.17
2022-08-20T10:20:59.095Z,8.87
2022-08-20T10:23:25.754Z,9.30
2022-08-20T10:25:52.447Z,8.13
2022-08-20T10:28:19.610Z,8.67
2022-08-20T10:30:46.982Z,8.90
2022-08-20T10:33:13.664Z,8.53
2022-08-20T10:35:40.365Z,8.00
2022-08-20T10:38:07.027Z,8.37
2022-08-20T10:40:33.782Z,7.60
2022-08-20T10:43:00.450Z,7.50
2022-08-20T10:45:27.293Z,6.97
2022-08-20T10:47:54.070Z,7.43
2022-08-20T10:50:20.783Z,7.43
2022-08-20T10:52:47.483Z,7.77
2022-08-20T10:55:14.303Z,7.30
2022-08-20T10:57:41.369Z,8.47
2022-08-20T11:00:10.437Z,8.20
2022-08-20T11:02:38.435Z,8.63
2022-08-20T11:05:06.617Z,8.20
2022-08-20T11:07:55.737Z,8.30
2022-08-20T11:10:23.738Z,6.60
2022-08-20T11:12:51.090Z,6.87
2022-08-20T11:15:18.295Z,6.63
2022-08-20T11:17:45.936Z,7.63
2022-08-20T11:20:13.811Z,8.63
2022-08-20T11:22:40.651Z,7.83
2022-08-20T11:25:08.098Z,8.57
2022-08-20T11:27:38.646Z,8.47
2022-08-20T11:30:06.891Z,8.50
2022-08-20T11:32:33.579Z,7.87
2022-08-20T11:35:00.408Z,6.90
2022-08-20T11:37:27.168Z,5.33
2022-08-20T11:39:53.980Z,5.10
2022-08-20T11:42:20.950Z,4.60
2022-08-20T11:44:47.657Z,3.83
2022-08-20T11:47:25.373Z,4.57
2022-08-20T11:49:59.659Z,4.37
2022-08-20T11:52:27.215Z,4.60
2022-08-20T11:54:56.504Z,4.50
2022-08-20T11:57:26.712Z,4.23
2022-08-20T11:59:54.433Z,3.90
2022-08-20T12:02:21.272Z,4.57
2022-08-20T12:04:48.097Z,4.30
2022-08-20T12:07:17.139Z,4.23
2022-08-20T12:09:50.640Z,4.93
2022-08-20T12:12:19.474Z,4.53
2022-08-20T12:14:46.343Z,3.80
2022-08-20T12:17:19.913Z,3.67
2022-08-20T12:19:46.724Z,3.87
2022-08-20T12:22:23.741Z,3.60
2022-08-20T12:24:53.187Z,4.53
2022-08-20T12:27:23.112Z,4.80
2022-08-20T12:29:52.320Z,4.10
2022-08-20T12:32:23.203Z,3.87
2022-08-20T12:34:49.912Z,3.60
2022-08-20T12:37:19.062Z,3.60
2022-08-20T12:39:47.940Z,3.67
2022-08-20T12:42:14.879Z,3.80
2022-08-20T12:44:41.665Z,2.90
2022-08-20T12:47:16.244Z,3.47
2022-08-20T12:49:45.614Z,3.20
2022-08-20T12:52:13.620Z,3.30
2022-08-20T12:54:40.444Z,3.33
2022-08-20T12:57:07.268Z,3.73
2022-08-20T12:59:34.917Z,3.23
2022-08-20T13:02:03.431Z,3.10
2022-08-20T13:04:41.091Z,2.30
2022-08-20T13:07:09.398Z,2.47
2022-08-20T13:09:38.378Z,2.60
2022-08-20T13:12:07.986Z,2.37
2022-08-20T13:14:35.301Z,3.00
2022-08-20T13:17:02.115Z,2.90
2022-08-20T13:19:29.328Z,3.50
2022-08-20T13:21:56.114Z,3.30
2022-08-20T13:24:22.899Z,3.53
2022-08-20T13:26:49.816Z,3.70
2022-08-20T13:29:16.906Z,3.90
2022-08-20T13:31:43.598Z,4.43
2022-08-20T13:34:10.460Z,10.50
2022-08-20T13:36:37.251Z,10.37
2022-08-20T13:39:04.879Z,31.90
2022-08-20T13:41:31.528Z,40.63
2022-08-20T13:43:58.186Z,20.90
2022-08-20T13:46:24.887Z,4.60
2022-08-20T13:48:51.663Z,2.47
2022-08-20T13:51:19.181Z,2.60
2022-08-20T13:53:48.375Z,3.30
2022-08-20T13:56:15.036Z,3.73
2022-08-20T13:58:41.708Z,3.40
2022-08-20T14:01:08.403Z,2.90
2022-08-20T14:03:35.157Z,2.30
2022-08-20T14:06:03.208Z,3.23
2022-08-20T14:08:30.025Z,2.93
2022-08-20T14:10:56.949Z,2.47
2022-08-20T14:13:24.725Z,2.07
2022-08-20T14:15:51.876Z,3.00
2022-08-20T14:18:19.253Z,2.13
2022-08-20T14:20:46.018Z,2.00
2022-08-20T14:23:13.193Z,1.73
2022-08-20T14:25:39.913Z,1.97
2022-08-20T14:28:18.257Z,1.40
2022-08-20T14:30:45.474Z,1.60
2022-08-20T14:33:19.411Z,1.43
2022-08-20T14:35:46.062Z,1.90
2022-08-20T14:38:13.119Z,2.00
2022-08-20T14:40:39.787Z,1.60
2022-08-20T14:43:06.438Z,1.30
2022-08-20T14:45:33.562Z,1.30
2022-08-20T14:48:00.252Z,1.40
2022-08-20T14:50:31.763Z,1.17
2022-08-20T14:52:58.972Z,1.37
2022-08-20T14:55:27.890Z,1.73
2022-08-20T14:57:54.606Z,1.70
2022-08-20T15:00:23.674Z,1.43
2022-08-20T15:02:50.857Z,1.80
2022-08-20T15:05:17.655Z,2.07
2022-08-20T15:07:47.213Z,2.33
2022-08-20T15:10:17.596Z,2.00
2022-08-20T15:12:44.264Z,2.03
2022-08-20T15:15:15.454Z,1.77
2022-08-20T15:17:48.143Z,2.10
2022-08-20T15:20:20.375Z,1.67
2022-08-20T15:22:48.163Z,1.70
2022-08-20T15:25:15.655Z,2.13
2022-08-20T15:27:42.546Z,1.60
2022-08-20T15:30:11.813Z,1.57
2022-08-20T15:32:38.479Z,1.60
2022-08-20T15:35:06.170Z,2.17
2022-08-20T15:37:32.899Z,2.37
2022-08-20T15:40:02.415Z,2.27
2022-08-20T15:42:29.343Z,2.50
2022-08-20T15:44:56.008Z,1.60
2022-08-20T15:47:24.857Z,2.10
2022-08-20T15:50:04.846Z,2.03
2022-08-20T15:52:42.408Z,2.97
2022-08-20T15:55:11.583Z,3.13
2022-08-20T15:57:55.003Z,3.93
2022-08-20T16:00:23.839Z,4.13
2022-08-20T16:03:08.465Z,3.67
2022-08-20T16:05:49.011Z,3.87
2022-08-20T16:08:20.171Z,4.00
2022-08-20T16:11:08.657Z,4.60
2022-08-20T16:13:40.979Z,3.30
2022-08-20T16:16:14.440Z,3.77
2022-08-20T16:18:41.159Z,4.13
2022-08-20T16:21:13.312Z,3.80
2022-08-20T16:23:40.671Z,4.43
2022-08-20T16:26:16.827Z,4.63
2022-08-20T16:29:03.722Z,3.80
2022-08-20T16:31:40.911Z,4.60
2022-08-20T16:34:33.540Z,4.50
2022-08-20T16:37:05.932Z,4.50
2022-08-20T16:39:45.018Z,4.67
2022-08-20T16:42:14.287Z,4.03
2022-08-20T16:44:44.638Z,3.17
2022-08-20T16:47:16.849Z,3.10
2022-08-20T16:49:50.009Z,3.60
2022-08-20T16:52:16.696Z,3.10
2022-08-20T16:54:44.459Z,3.00
2022-08-20T16:57:16.583Z,3.57
2022-08-20T17:00:07.722Z,3.70
2022-08-20T17:02:34.419Z,3.53
2022-08-20T17:05:02.180Z,3.50
2022-08-20T17:07:43.291Z,3.20
2022-08-20T17:10:24.076Z,3.10
2022-08-20T17:12:56.147Z,3.87
2022-08-20T17:15:28.263Z,3.40
2022-08-20T17:17:55.708Z,3.47
2022-08-20T17:20:24.494Z,3.37
2022-08-20T17:23:07.123Z,3.33
2022-08-20T17:25:38.019Z,3.73
2022-08-20T17:28:20.974Z,3.57
2022-08-20T17:30:47.764Z,4.10
2022-08-20T17:33:32.819Z,3.80
2022-08-20T17:36:16.979Z,3.37
2022-08-20T17:38:51.228Z,3.50
2022-08-20T17:41:38.803Z,3.73
2022-08-20T17:44:17.470Z,3.67
2022-08-20T17:46:45.101Z,3.73
2022-08-20T17:49:12.444Z,4.00
2022-08-20T17:51:42.756Z,4.13
2022-08-20T17:54:13.438Z,3.57
2022-08-20T17:56:40.957Z,3.70
2022-08-20T17:59:11.307Z,3.80
2022-08-20T18:01:38.427Z,3.73
2022-08-20T18:04:05.111Z,4.63
2022-08-20T18:06:37.564Z,5.20
2022-08-20T18:09:16.704Z,6.60
2022-08-20T18:11:48.392Z,5.40
2022-08-20T18:14:26.573Z,5.50
2022-08-20T18:17:08.919Z,5.03
2022-08-20T18:20:09.110Z,4.97
2022-08-20T18:22:44.127Z,5.20
2022-08-20T18:25:26.385Z,5.10
2022-08-20T18:27:53.692Z,5.53
2022-08-20T18:30:22.052Z,4.90
2022-08-20T18:32:49.669Z,5.43
2022-08-20T18:35:22.095Z,5.20
2022-08-20T18:37:49.242Z,3.67
2022-08-20T18:40:19.297Z,4.03
2022-08-20T18:42:46.251Z,3.97
2022-08-20T18:45:13.416Z,4.20
2022-08-20T18:47:45.276Z,7.13
2022-08-20T18:50:38.683Z,6.60
2022-08-20T18:53:14.844Z,6.00
2022-08-20T18:55:43.471Z,5.53
2022-08-20T18:58:12.597Z,5.03
2022-08-20T19:00:45.276Z,5.43
2022-08-20T19:03:17.656Z,4.20
2022-08-20T19:06:07.583Z,4.70
2022-08-20T19:08:42.929Z,4.30
2022-08-20T19:11:28.018Z,4.67
2022-08-20T19:14:20.025Z,4.73
2022-08-20T19:17:02.345Z,4.30
2022-08-20T19:19:32.861Z,5.10
2022-08-20T19:22:00.407Z,4.53
2022-08-20T19:24:29.352Z,5.60
2022-08-20T19:27:01.668Z,4.80
2022-08-20T19:29:30.842Z,5.43
2022-08-20T19:31:59.328Z,5.00
2022-08-20T19:34:26.379Z,5.30
2022-08-20T19:37:34.831Z,4.50
2022-08-20T19:39:57.108Z,4.90
2022-08-20T19:42:31.250Z,6.77
2022-08-20T19:45:06.661Z,5.80
2022-08-20T19:47:35.172Z,5.93
2022-08-20T19:50:21.015Z,5.40
2022-08-20T19:53:05.293Z,4.90
2022-08-20T19:55:33.982Z,5.00
2022-08-20T19:58:02.361Z,4.90
2022-08-20T20:00:32.315Z,4.80
2022-08-20T20:03:24.337Z,5.00
2022-08-20T20:05:51.424Z,3.87
2022-08-20T20:08:18.131Z,4.80
2022-08-20T20:10:46.803Z,3.70
2022-08-20T20:13:15.175Z,3.50
2022-08-20T20:15:42.333Z,3.43
2022-08-20T20:18:09.183Z,3.67
2022-08-20T20:20:57.369Z,3.90
2022-08-20T20:23:27.102Z,3.70
2022-08-20T20:26:00.334Z,3.77
2022-08-20T20:28:43.838Z,4.00
2022-08-20T20:31:13.166Z,5.77
2022-08-20T20:33:44.126Z,4.73
2022-08-20T20:36:13.059Z,4.23
2022-08-20T20:38:53.978Z,4.47
2022-08-20T20:41:23.240Z,3.80
2022-08-20T20:43:59.287Z,3.60
2022-08-20T20:46:27.563Z,3.90
2022-08-20T20:49:01.064Z,3.40
2022-08-20T20:51:39.532Z,3.77
2022-08-20T20:54:24.085Z,4.50
2022-08-20T20:57:08.119Z,4.07
2022-08-20T20:59:35.236Z,3.23
2022-08-20T21:02:02.668Z,4.40
2022-08-20T21:04:29.443Z,3.33
2022-08-20T21:06:57.007Z,3.77
2022-08-20T21:09:24.729Z,3.83
2022-08-20T21:11:51.415Z,4.13
2022-08-20T21:14:18.190Z,3.73
2022-08-20T21:16:45.361Z,3.40
2022-08-20T21:19:12.482Z,3.60
2022-08-20T21:21:39.683Z,4.10
2022-08-20T21:24:07.151Z,3.30
2022-08-20T21:26:34.209Z,3.70
2022-08-20T21:29:00.881Z,3.67
2022-08-20T21:31:33.947Z,3.53
2022-08-20T21:34:01.011Z,3.50
2022-08-20T21:36:28.145Z,3.90
2022-08-20T21:38:54.904Z,3.93
2022-08-20T21:41:29.960Z,3.87
2022-08-20T21:43:58.621Z,3.43
2022-08-20T21:46:25.946Z,4.20
2022-08-20T21:48:52.611Z,3.97
2022-08-20T21:51:19.276Z,4.43
2022-08-20T21:53:46.471Z,4.37
2022-08-20T21:56:13.579Z,3.97
2022-08-20T21:58:40.699Z,3.63
2022-08-20T22:01:07.880Z,4.13
2022-08-20T22:03:38.480Z,3.67
2022-08-20T22:06:06.405Z,3.90
2022-08-20T22:08:33.553Z,3.20
2022-08-20T22:11:00.497Z,3.77
2022-08-20T22:13:31.341Z,4.87
2022-08-20T22:15:59.541Z,3.90
2022-08-20T22:18:26.270Z,4.13
2022-08-20T22:20:53.122Z,4.53
2022-08-20T22:23:20.308Z,3.77
2022-08-20T22:25:47.094Z,3.73
2022-08-20T22:28:13.747Z,3.90
2022-08-20T22:30:42.321Z,3.90
2022-08-20T22:33:13.407Z,3.90
2022-08-20T22:35:47.545Z,4.40
2022-08-20T22:38:14.845Z,3.43
2022-08-20T22:40:42.084Z,3.80
2022-08-20T22:43:08.759Z,4.20
2022-08-20T22:45:35.935Z,4.03
2022-08-20T22:48:03.083Z,3.47
2022-08-20T22:50:29.727Z,3.60
2022-08-20T22:52:56.508Z,4.17
2022-08-20T22:55:23.379Z,3.20
2022-08-20T22:57:50.054Z,4.10
2022-08-20T23:00:18.734Z,3.83
2022-08-20T23:02:50.270Z,4.00
2022-08-20T23:05:18.326Z,3.43
2022-08-20T23:07:45.439Z,3.27
2022-08-20T23:10:12.202Z,4.10
2022-08-20T23:12:39.057Z,3.67
2022-08-20T23:15:06.568Z,3.60
2022-08-20T23:17:33.975Z,3.50
2022-08-20T23:20:01.229Z,4.10
2022-08-20T23:22:28.298Z,4.20
2022-08-20T23:24:59.951Z,4.87
2022-08-20T23:27:28.057Z,3.97
2022-08-20T23:29:55.144Z,4.60
2022-08-20T23:32:21.851Z,4.00
2022-08-20T23:34:48.827Z,4.60
2022-08-20T23:37:18.781Z,4.10
2022-08-20T23:39:46.442Z,4.40
2022-08-20T23:42:14.023Z,4.50
2022-08-20T23:44:40.794Z,4.37
2022-08-20T23:47:07.600Z,4.00
2022-08-20T23:49:34.351Z,4.40
2022-08-20T23:52:01.822Z,4.50
2022-08-20T23:54:29.282Z,4.50
2022-08-20T23:56:56.999Z,4.80
2022-08-20T23:59:24.149Z,4.80
